Time;durP1;ratioP1;P1;durP2;ratioP2;P2;SDS_P1;SDS_P2;PMS_P1;PMS_P2;Temp;Humidity;BMP_temperature;BMP_pressure;BME280_temperature;BME280_humidity;BME280_pressure;Samples;Min_cycle;Max_cycle;Signal;HPM_P1;HPM_P2
2024/03/06 00:00:08;;;;;;;0.50;0.32;;;7.90;1.00;;;;;;5056553;28;20430;-59
2024/03/06 00:02:35;;;;;;;1.80;0.40;;;7.90;1.00;;;;;;5056373;28;20501;-60
2024/03/06 00:05:04;;;;;;;1.30;0.50;;;8.10;1.00;;;;;;5056056;28;20490;-59
2024/03/06 00:07:31;;;;;;;0.70;0.50;;;8.10;1.00;;;;;;5056543;28;20453;-59
2024/03/06 00:09:58;;;;;;;0.90;0.50;;;8.10;1.00;;;;;;5055429;28;20425;-59
2024/03/06 00:12:25;;;;;;;1.70;0.50;;;8.10;1.00;;;;;;5056171;28;20512;-59
2024/03/06 00:14:52;;;;;;;2.55;0.40;;;8.30;1.00;;;;;;5056654;28;20493;-59
2024/03/06 00:17:19;;;;;;;1.30;0.60;;;8.40;1.00;;;;;;5055975;28;20520;-59
2024/03/06 00:19:46;;;;;;;1.40;0.45;;;8.40;1.00;;;;;;5055762;28;20524;-59
2024/03/06 00:22:16;;;;;;;1.25;0.40;;;8.30;1.00;;;;;;5047211;28;20517;-59
2024/03/06 00:24:43;;;;;;;0.90;0.40;;;8.40;1.00;;;;;;5055979;28;20409;-60
2024/03/06 00:27:10;;;;;;;0.70;0.43;;;8.40;1.00;;;;;;5056298;28;20511;-59
2024/03/06 00:29:38;;;;;;;0.60;0.40;;;8.40;1.00;;;;;;5055928;28;20511;-58
2024/03/06 00:32:05;;;;;;;0.70;0.40;;;8.40;1.00;;;;;;5055611;28;20520;-59
2024/03/06 00:34:32;;;;;;;1.13;0.40;;;8.50;1.00;;;;;;5055170;28;20433;-58
2024/03/06 00:36:59;;;;;;;0.77;0.40;;;8.40;1.00;;;;;;5048247;28;20503;-59
2024/03/06 00:39:27;;;;;;;0.60;0.40;;;8.50;1.00;;;;;;5055992;28;20494;-59
2024/03/06 00:41:54;;;;;;;1.20;0.40;;;8.40;1.00;;;;;;5055466;28;20429;-60
2024/03/06 00:44:21;;;;;;;1.30;0.50;;;8.60;1.00;;;;;;5055063;28;20433;-59
2024/03/06 00:46:48;;;;;;;0.90;0.40;;;8.60;1.00;;;;;;5055642;28;20516;-59
2024/03/06 00:49:15;;;;;;;0.60;0.40;;;8.70;99.90;;;;;;5054705;28;20432;-59
2024/03/06 00:51:57;;;;;;;0.90;0.40;;;8.70;99.90;;;;;;5055415;28;20882;-59
2024/03/06 00:54:29;;;;;;;1.10;0.47;;;8.40;1.00;;;;;;5054551;28;20524;-59
2024/03/06 00:56:57;;;;;;;1.40;0.40;;;8.20;1.00;;;;;;5056107;28;20543;-59
2024/03/06 00:59:26;;;;;;;0.90;0.40;;;8.30;1.00;;;;;;5046808;28;20496;-60
2024/03/06 01:01:55;;;;;;;0.70;0.40;;;8.10;1.00;;;;;;5055484;28;20528;-59
2024/03/06 01:04:24;;;;;;;0.90;0.50;;;8.10;1.00;;;;;;5052204;28;20499;-59
2024/03/06 01:06:52;;;;;;;0.70;0.40;;;8.00;1.00;;;;;;5049035;28;20831;-58
2024/03/06 01:09:19;;;;;;;0.80;0.40;;;7.90;1.00;;;;;;5055042;28;20437;-59
2024/03/06 01:11:47;;;;;;;1.20;0.50;;;7.90;1.00;;;;;;5055855;28;20508;-59
2024/03/06 01:14:14;;;;;;;0.75;0.40;;;7.90;1.00;;;;;;5055626;28;20494;-59
2024/03/06 01:16:41;;;;;;;1.73;0.50;;;7.90;1.00;;;;;;5055609;28;20456;-60
2024/03/06 01:19:08;;;;;;;0.80;0.40;;;7.80;1.00;;;;;;5055388;28;20521;-60
2024/03/06 01:21:35;;;;;;;0.80;0.40;;;7.70;1.00;;;;;;5050271;28;20603;-59
2024/03/06 01:24:03;;;;;;;1.10;0.40;;;7.70;1.00;;;;;;5055186;28;20520;-61
2024/03/06 01:26:30;;;;;;;0.75;0.40;;;7.80;1.00;;;;;;5055670;28;20539;-59
2024/03/06 01:28:58;;;;;;;0.80;0.43;;;7.80;1.00;;;;;;5054495;28;20524;-59
2024/03/06 01:31:25;;;;;;;1.02;0.50;;;7.90;1.00;;;;;;5055076;28;20475;-59
2024/03/06 01:33:52;;;;;;;0.90;0.40;;;7.90;1.00;;;;;;5053778;28;20528;-59
2024/03/06 01:36:19;;;;;;;0.70;0.40;;;7.90;1.00;;;;;;5055675;28;20516;-59
2024/03/06 01:38:46;;;;;;;0.60;0.40;;;7.90;1.00;;;;;;5054904;28;20460;-58
2024/03/06 01:41:13;;;;;;;1.80;0.40;;;8.00;1.00;;;;;;5054748;28;21058;-59
2024/03/06 01:43:40;;;;;;;1.20;0.40;;;8.00;1.00;;;;;;5053710;28;20862;-59
2024/03/06 01:46:08;;;;;;;0.70;0.40;;;8.00;1.00;;;;;;5054492;28;20429;-58
2024/03/06 01:48:36;;;;;;;0.60;0.40;;;8.10;1.00;;;;;;5056553;28;20883;-59
2024/03/06 01:51:05;;;;;;;0.90;0.40;;;8.10;1.00;;;;;;5069567;28;20431;-59
2024/03/06 01:53:33;;;;;;;1.23;0.40;;;8.10;1.00;;;;;;5061251;28;20445;-59
2024/03/06 01:56:00;;;;;;;0.98;0.50;;;8.10;1.00;;;;;;5058150;28;20429;-59
2024/03/06 01:58:27;;;;;;;1.20;0.40;;;8.10;1.00;;;;;;5057998;28;20516;-59
2024/03/06 02:00:54;;;;;;;1.90;0.40;;;8.10;1.00;;;;;;5058314;28;20417;-59
2024/03/06 02:03:23;;;;;;;0.70;0.40;;;8.30;1.00;;;;;;5056936;28;20433;-59
2024/03/06 02:05:51;;;;;;;1.40;0.40;;;8.30;1.00;;;;;;5057280;28;20524;-59
2024/03/06 02:08:18;;;;;;;1.60;0.40;;;8.40;1.00;;;;;;5058032;28;20428;-59
2024/03/06 02:10:46;;;;;;;0.63;0.40;;;8.30;1.00;;;;;;5057092;28;20544;-59
2024/03/06 02:13:13;;;;;;;0.80;0.40;;;8.40;1.00;;;;;;5057323;28;20429;-59
2024/03/06 02:15:40;;;;;;;0.90;0.50;;;8.50;1.00;;;;;;5057650;28;20425;-58
2024/03/06 02:18:08;;;;;;;1.10;0.50;;;8.40;1.00;;;;;;5058604;28;20871;-59
2024/03/06 02:20:39;;;;;;;0.60;0.40;;;8.30;1.00;;;;;;5058940;28;20444;-59
2024/03/06 02:23:05;;;;;;;2.00;0.40;;;8.30;99.90;;;;;;5058339;28;20535;-59
2024/03/06 02:25:32;;;;;;;1.20;0.40;;;8.30;1.00;;;;;;5057602;28;20524;-59
2024/03/06 02:27:59;;;;;;;1.00;0.50;;;8.40;1.00;;;;;;5057842;28;20578;-59
2024/03/06 02:30:26;;;;;;;0.90;0.40;;;8.50;1.00;;;;;;5058711;28;20811;-59
2024/03/06 02:32:53;;;;;;;1.13;0.40;;;8.50;1.00;;;;;;5058193;28;20521;-59
2024/03/06 02:35:20;;;;;;;1.45;0.50;;;8.40;1.00;;;;;;5058070;28;20531;-59
2024/03/06 02:37:48;;;;;;;0.98;0.50;;;8.40;1.00;;;;;;5058502;28;20508;-59
2024/03/06 02:40:15;;;;;;;0.77;0.50;;;8.30;1.00;;;;;;5058493;28;20435;-59
2024/03/06 02:42:42;;;;;;;1.50;0.50;;;8.10;1.00;;;;;;5058028;28;20754;-60
2024/03/06 02:45:09;;;;;;;1.60;0.65;;;8.20;1.00;;;;;;5058201;28;20426;-60
2024/03/06 02:47:36;;;;;;;0.90;0.50;;;8.30;1.00;;;;;;5058634;28;20624;-58
2024/03/06 02:50:04;;;;;;;1.10;0.70;;;8.40;1.00;;;;;;5060781;28;20876;-59
2024/03/06 02:52:31;;;;;;;1.23;0.70;;;8.40;1.00;;;;;;5077803;28;20427;-59
2024/03/06 02:55:00;;;;;;;0.93;0.65;;;8.40;1.00;;;;;;5077899;28;20791;-58
2024/03/06 02:57:28;;;;;;;1.40;0.80;;;8.30;1.00;;;;;;5065990;28;20481;-58
2024/03/06 02:59:56;;;;;;;1.50;0.80;;;8.40;1.00;;;;;;5056814;28;20850;-59
2024/03/06 03:02:23;;;;;;;1.58;0.80;;;8.30;1.00;;;;;;5056168;28;20793;-59
2024/03/06 03:04:50;;;;;;;1.40;0.75;;;8.30;1.00;;;;;;5057039;28;20542;-59
2024/03/06 03:07:17;;;;;;;1.27;0.80;;;8.30;1.00;;;;;;5054978;28;20460;-59
2024/03/06 03:09:44;;;;;;;1.20;0.80;;;8.30;1.00;;;;;;5054428;28;20492;-59
2024/03/06 03:12:12;;;;;;;1.10;0.70;;;8.30;1.00;;;;;;5056833;28;20771;-59
2024/03/06 03:14:41;;;;;;;1.10;0.70;;;8.30;1.00;;;;;;5056391;28;20839;-59
2024/03/06 03:17:08;;;;;;;0.93;0.50;;;8.20;1.00;;;;;;5056644;28;20488;-59
2024/03/06 03:19:35;;;;;;;1.00;0.60;;;8.10;99.90;;;;;;5057012;28;20507;-59
2024/03/06 03:22:04;;;;;;;0.97;0.57;;;7.90;1.00;;;;;;5057090;28;20926;-59
2024/03/06 03:24:31;;;;;;;1.77;0.60;;;7.80;1.00;;;;;;5057049;28;20429;-59
2024/03/06 03:26:57;;;;;;;2.00;0.60;;;7.90;1.00;;;;;;5056771;28;20445;-59
2024/03/06 03:29:26;;;;;;;1.10;0.50;;;8.00;1.00;;;;;;5057246;28;20768;-59
2024/03/06 03:31:53;;;;;;;1.10;0.50;;;8.00;1.00;;;;;;5057209;28;20766;-59
2024/03/06 03:34:20;;;;;;;1.00;0.60;;;8.10;1.00;;;;;;5056850;28;20445;-60
2024/03/06 03:36:48;;;;;;;0.88;0.50;;;8.20;1.00;;;;;;5057321;28;20436;-59
2024/03/06 03:39:16;;;;;;;1.23;0.50;;;8.20;1.00;;;;;;5057333;28;20473;-59
2024/03/06 03:41:46;;;;;;;0.70;0.50;;;8.30;1.00;;;;;;5056835;28;20440;-59
2024/03/06 03:44:14;;;;;;;0.90;0.50;;;8.10;58.40;;;;;;5056890;28;20429;-59
2024/03/06 03:46:43;;;;;;;1.10;0.60;;;8.00;99.90;;;;;;5056665;28;20449;-59
2024/03/06 03:49:10;;;;;;;1.00;0.60;;;8.00;1.00;;;;;;5056827;28;20469;-58
2024/03/06 03:51:38;;;;;;;0.95;0.60;;;8.00;1.00;;;;;;5048599;28;20815;-59
2024/03/06 03:54:05;;;;;;;0.77;0.50;;;7.70;1.00;;;;;;5056901;28;20447;-57
2024/03/06 03:56:33;;;;;;;1.58;0.60;;;7.80;1.00;;;;;;5057018;28;20507;-59
2024/03/06 03:59:00;;;;;;;1.00;0.60;;;7.80;1.00;;;;;;5056539;28;20436;-59
2024/03/06 04:01:27;;;;;;;0.80;0.50;;;7.70;1.00;;;;;;5056654;28;20947;-59
2024/03/06 04:03:55;;;;;;;1.05;0.60;;;7.80;1.00;;;;;;5056924;28;20492;-59
2024/03/06 04:06:22;;;;;;;0.98;0.60;;;8.00;1.00;;;;;;5056774;28;20425;-59
2024/03/06 04:08:49;;;;;;;1.00;0.50;;;7.90;1.00;;;;;;5056437;28;20427;-59
2024/03/06 04:11:16;;;;;;;1.35;0.60;;;8.10;1.00;;;;;;5055777;28;20433;-58
2024/03/06 04:13:43;;;;;;;0.70;0.50;;;8.00;1.00;;;;;;5051223;28;20776;-57
2024/03/06 04:16:10;;;;;;;0.80;0.50;;;8.10;1.00;;;;;;5053147;28;20424;-58
2024/03/06 04:18:38;;;;;;;0.77;0.50;;;8.20;1.00;;;;;;5055707;28;20461;-59
2024/03/06 04:21:07;;;;;;;0.90;0.52;;;8.30;1.00;;;;;;5056744;28;20719;-58
2024/03/06 04:23:35;;;;;;;1.10;0.50;;;8.20;1.00;;;;;;5055087;28;20754;-58
2024/03/06 04:26:02;;;;;;;0.85;0.60;;;8.20;1.00;;;;;;5055278;28;20425;-58
2024/03/06 04:28:29;;;;;;;0.90;0.55;;;8.10;1.00;;;;;;5052800;28;20435;-57
2024/03/06 04:30:56;;;;;;;1.00;0.50;;;7.80;1.00;;;;;;5050271;28;20503;-58
2024/03/06 04:33:23;;;;;;;1.05;0.60;;;7.70;1.00;;;;;;5055296;28;20520;-58
2024/03/06 04:35:50;;;;;;;0.80;0.50;;;7.60;1.20;;;;;;5054846;28;20531;-57
2024/03/06 04:38:18;;;;;;;1.20;0.50;;;7.80;9.60;;;;;;5055458;28;20521;-56
2024/03/06 04:40:45;;;;;;;0.88;0.50;;;7.90;1.00;;;;;;5055944;28;20679;-58
2024/03/06 04:43:12;;;;;;;0.90;0.60;;;8.00;1.00;;;;;;5055878;28;20417;-58
2024/03/06 04:45:39;;;;;;;1.98;0.60;;;8.00;1.00;;;;;;5056378;28;20504;-57
2024/03/06 04:48:07;;;;;;;1.10;0.60;;;7.90;1.00;;;;;;5054412;28;20528;-58
2024/03/06 04:50:34;;;;;;;1.10;0.63;;;8.00;1.00;;;;;;5053619;28;20437;-57
2024/03/06 04:53:01;;;;;;;0.93;0.52;;;8.00;1.00;;;;;;5053769;28;20536;-57
2024/03/06 04:55:30;;;;;;;2.30;0.70;;;8.00;1.00;;;;;;5053852;28;20528;-55
2024/03/06 04:57:57;;;;;;;1.20;0.60;;;8.00;1.00;;;;;;5054626;28;20428;-55
2024/03/06 05:00:24;;;;;;;0.90;0.50;;;7.80;1.00;;;;;;5055272;28;20529;-57
2024/03/06 05:02:51;;;;;;;2.10;0.60;;;7.80;1.40;;;;;;5055880;28;20706;-52
2024/03/06 05:05:18;;;;;;;1.02;0.60;;;7.80;1.10;;;;;;5056004;28;20445;-57
2024/03/06 05:07:45;;;;;;;1.30;0.57;;;7.80;1.00;;;;;;5041266;28;20691;-57
2024/03/06 05:10:12;;;;;;;1.50;0.50;;;7.70;1.00;;;;;;5051757;28;20488;-54
2024/03/06 05:12:40;;;;;;;1.33;0.65;;;7.70;20.30;;;;;;5055640;28;20781;-54
2024/03/06 05:15:08;;;;;;;0.90;0.50;;;7.70;99.90;;;;;;5055352;28;20523;-54
2024/03/06 05:17:35;;;;;;;1.10;0.50;;;7.80;99.90;;;;;;5055104;28;20425;-54
2024/03/06 05:20:03;;;;;;;1.60;0.70;;;7.70;99.90;;;;;;5055446;28;20464;-54
2024/03/06 05:22:31;;;;;;;1.10;0.60;;;7.60;99.90;;;;;;5054800;28;20428;-55
2024/03/06 05:24:58;;;;;;;1.10;0.60;;;7.50;99.90;;;;;;5056587;28;20411;-52
2024/03/06 05:27:26;;;;;;;0.90;0.60;;;7.60;99.90;;;;;;5056948;28;20520;-53
2024/03/06 05:29:55;;;;;;;1.70;0.60;;;7.80;99.90;;;;;;5055550;28;20471;-51
2024/03/06 05:32:22;;;;;;;1.00;0.60;;;7.70;99.90;;;;;;5055641;28;20531;-55
2024/03/06 05:34:49;;;;;;;0.90;0.60;;;7.70;99.90;;;;;;5055985;28;20432;-55
2024/03/06 05:37:16;;;;;;;1.92;0.60;;;7.70;99.90;;;;;;5057023;28;20507;-54
2024/03/06 05:39:44;;;;;;;1.00;0.80;;;7.90;99.90;;;;;;5057744;28;20431;-53
2024/03/06 05:42:13;;;;;;;1.10;0.80;;;7.80;99.90;;;;;;5057520;28;21488;-53
2024/03/06 05:44:40;;;;;;;1.17;0.60;;;7.80;99.90;;;;;;5058636;28;20523;-52
2024/03/06 05:47:09;;;;;;;2.80;0.70;;;7.70;99.90;;;;;;5059501;28;20491;-52
2024/03/06 05:49:36;;;;;;;1.00;0.60;;;7.80;99.90;;;;;;5058917;28;20755;-55
2024/03/06 05:52:02;;;;;;;1.10;0.70;;;7.90;99.90;;;;;;5043668;28;20725;-53
2024/03/06 05:54:33;;;;;;;1.05;0.60;;;7.70;99.90;;;;;;5038948;28;20720;-55
2024/03/06 05:57:00;;;;;;;1.60;0.70;;;7.70;99.90;;;;;;5038086;28;20512;-54
2024/03/06 05:59:26;;;;;;;1.60;0.60;;;7.70;99.90;;;;;;5038590;28;20517;-55
2024/03/06 06:01:53;;;;;;;1.38;0.55;;;7.80;99.90;;;;;;5038045;28;20543;-53
2024/03/06 06:04:22;;;;;;;0.90;0.60;;;7.90;99.90;;;;;;5037202;28;20505;-53
2024/03/06 06:06:49;;;;;;;1.23;0.70;;;8.00;99.90;;;;;;5037233;28;20798;-54
2024/03/06 06:09:17;;;;;;;1.90;0.73;;;8.10;99.90;;;;;;5052279;28;20844;-54
2024/03/06 06:11:44;;;;;;;1.42;0.60;;;8.00;99.90;;;;;;5057615;28;20440;-52
2024/03/06 06:14:12;;;;;;;1.77;0.70;;;8.00;99.90;;;;;;5054344;28;20470;-54
2024/03/06 06:16:40;;;;;;;2.20;0.60;;;7.90;99.90;;;;;;5037082;28;21030;-53
2024/03/06 06:19:08;;;;;;;1.30;0.50;;;8.00;99.90;;;;;;5033962;28;20419;-53
2024/03/06 06:21:37;;;;;;;2.20;0.70;;;8.30;99.90;;;;;;5035778;28;20419;-54
2024/03/06 06:24:05;;;;;;;1.13;0.60;;;8.40;99.90;;;;;;5037562;28;20466;-54
2024/03/06 06:26:32;;;;;;;1.50;0.80;;;8.40;99.90;;;;;;5037259;28;20939;-50
2024/03/06 06:28:59;;;;;;;2.85;0.80;;;8.30;99.90;;;;;;5037393;28;20489;-51
2024/03/06 06:31:26;;;;;;;1.30;0.80;;;8.20;99.90;;;;;;5037691;28;20782;-51
2024/03/06 06:33:53;;;;;;;2.60;0.70;;;8.10;99.90;;;;;;5037382;28;20789;-54
2024/03/06 06:36:20;;;;;;;1.10;0.80;;;8.00;99.90;;;;;;5038006;28;20538;-55
2024/03/06 06:38:49;;;;;;;1.42;0.80;;;8.10;99.90;;;;;;5043658;28;20435;-54
2024/03/06 06:41:16;;;;;;;1.80;0.70;;;8.30;99.90;;;;;;5058188;28;20432;-54
2024/03/06 06:43:43;;;;;;;2.30;0.80;;;8.00;99.90;;;;;;5057219;28;20442;-55
2024/03/06 06:46:10;;;;;;;1.70;0.70;;;7.80;99.90;;;;;;5054989;28;20492;-52
2024/03/06 06:48:37;;;;;;;1.35;0.70;;;7.80;99.90;;;;;;5053744;28;20425;-52
2024/03/06 06:51:04;;;;;;;1.40;0.80;;;7.90;99.90;;;;;;5055052;28;20417;-53
2024/03/06 06:53:31;;;;;;;2.50;0.70;;;8.00;99.90;;;;;;5055854;28;20514;-52
2024/03/06 06:55:59;;;;;;;1.80;0.70;;;8.10;99.90;;;;;;5055434;28;20437;-52
2024/03/06 06:58:27;;;;;;;1.30;0.70;;;7.90;99.90;;;;;;5056272;28;20649;-51
2024/03/06 07:00:54;;;;;;;1.60;0.70;;;7.80;99.90;;;;;;5057096;28;20517;-48
2024/03/06 07:03:23;;;;;;;1.30;0.70;;;7.60;99.90;;;;;;5056643;28;20421;-50
2024/03/06 07:05:49;;;;;;;1.67;0.70;;;7.80;99.90;;;;;;5057323;28;20532;-52
2024/03/06 07:08:16;;;;;;;1.80;0.65;;;7.90;99.90;;;;;;5055176;28;20653;-51
2024/03/06 07:10:43;;;;;;;1.30;0.70;;;8.00;99.90;;;;;;5054408;28;20436;-48
2024/03/06 07:13:11;;;;;;;1.50;0.70;;;8.30;99.90;;;;;;5055365;28;20464;-51
2024/03/06 07:15:38;;;;;;;1.20;0.70;;;8.30;99.90;;;;;;5054403;28;20520;-50
2024/03/06 07:18:06;;;;;;;2.00;0.70;;;8.40;99.90;;;;;;5053113;28;20532;-52
2024/03/06 07:20:32;;;;;;;1.20;0.70;;;8.20;99.90;;;;;;5056652;28;20510;-53
2024/03/06 07:22:59;;;;;;;2.28;0.70;;;8.20;99.90;;;;;;5047867;28;20725;-54
2024/03/06 07:25:26;;;;;;;1.90;0.67;;;8.30;99.90;;;;;;5052778;28;20552;-50
2024/03/06 07:27:53;;;;;;;1.80;0.80;;;8.30;99.90;;;;;;5054177;28;20437;-52
2024/03/06 07:30:22;;;;;;;1.80;0.80;;;8.30;99.90;;;;;;5051588;28;20452;-50
2024/03/06 07:32:49;;;;;;;1.70;0.70;;;8.50;99.90;;;;;;5036798;28;20441;-51
2024/03/06 07:35:17;;;;;;;1.00;0.70;;;8.50;99.90;;;;;;5044016;28;20544;-50
2024/03/06 07:37:44;;;;;;;3.38;0.90;;;8.60;99.90;;;;;;5054126;28;20448;-55
2024/03/06 07:40:12;;;;;;;2.80;0.80;;;8.40;99.90;;;;;;5054671;28;20437;-54
2024/03/06 07:42:39;;;;;;;1.60;0.70;;;8.40;99.90;;;;;;5053793;28;20776;-49
2024/03/06 07:45:07;;;;;;;1.55;0.80;;;8.50;99.90;;;;;;5053291;28;20523;-50
2024/03/06 07:47:37;;;;;;;2.38;0.80;;;8.50;99.90;;;;;;5045548;28;20437;-50
2024/03/06 07:50:05;;;;;;;3.05;0.80;;;8.30;99.90;;;;;;5047282;28;20442;-50
2024/03/06 07:52:32;;;;;;;1.23;0.90;;;8.50;99.90;;;;;;5045610;28;20478;-48
2024/03/06 07:54:59;;;;;;;1.50;0.80;;;8.60;99.90;;;;;;5043349;28;20449;-51
2024/03/06 07:57:26;;;;;;;2.23;0.90;;;8.70;99.90;;;;;;5054530;28;20469;-50
2024/03/06 07:59:54;;;;;;;1.05;0.70;;;8.70;99.90;;;;;;5049550;28;20433;-53
2024/03/06 08:02:21;;;;;;;1.40;0.70;;;8.70;99.90;;;;;;5055930;28;20940;-51
2024/03/06 08:04:49;;;;;;;1.25;0.70;;;8.80;99.90;;;;;;5053238;28;20502;-55
2024/03/06 08:07:16;;;;;;;1.00;0.70;;;8.60;7.40;;;;;;5052260;28;20494;-54
2024/03/06 08:09:43;;;;;;;1.20;0.90;;;8.50;99.90;;;;;;5052365;28;20514;-55
2024/03/06 08:12:10;;;;;;;1.38;0.80;;;8.50;99.90;;;;;;5054849;28;20429;-55
2024/03/06 08:14:37;;;;;;;1.45;0.73;;;8.40;99.90;;;;;;5052493;28;20531;-50
2024/03/06 08:17:04;;;;;;;1.73;0.90;;;8.10;99.90;;;;;;5055490;28;20437;-51
2024/03/06 08:19:34;;;;;;;1.30;0.70;;;8.20;99.90;;;;;;5054479;28;20537;-55
2024/03/06 08:22:03;;;;;;;2.08;0.80;;;8.20;99.90;;;;;;5047738;28;20443;-52
2024/03/06 08:24:30;;;;;;;1.13;0.80;;;8.30;99.90;;;;;;5036054;28;20553;-51
2024/03/06 08:26:57;;;;;;;1.48;0.80;;;8.30;99.90;;;;;;5042193;28;20519;-50
2024/03/06 08:29:23;;;;;;;2.60;0.80;;;8.00;99.90;;;;;;5051737;28;20441;-52
2024/03/06 08:31:50;;;;;;;3.00;0.80;;;7.90;99.90;;;;;;5054544;28;20475;-57
2024/03/06 08:34:17;;;;;;;2.00;0.70;;;8.20;99.90;;;;;;5051517;28;20521;-56
2024/03/06 08:36:44;;;;;;;1.77;0.70;;;8.50;99.90;;;;;;5040299;28;20433;-54
2024/03/06 08:39:16;;;;;;;1.30;0.70;;;8.60;99.90;;;;;;5053602;28;20442;-59
2024/03/06 08:41:43;;;;;;;1.40;0.70;;;8.50;99.90;;;;;;5047998;28;20448;-57
2024/03/06 08:44:10;;;;;;;1.65;0.68;;;8.40;32.60;;;;;;5054453;28;20425;-59
2024/03/06 08:46:36;;;;;;;1.27;0.80;;;8.20;99.90;;;;;;5050240;28;20444;-54
2024/03/06 08:49:03;;;;;;;1.40;0.80;;;8.00;99.90;;;;;;5053099;28;20531;-58
2024/03/06 08:51:30;;;;;;;1.15;0.80;;;8.20;99.90;;;;;;5053117;28;20797;-56
2024/03/06 08:53:57;;;;;;;1.70;0.90;;;8.50;99.90;;;;;;5052745;28;20782;-54
2024/03/06 08:56:25;;;;;;;1.20;0.70;;;8.80;99.90;;;;;;5045636;28;20433;-55
2024/03/06 08:58:53;;;;;;;2.40;0.90;;;9.00;99.90;;;;;;5053215;28;20537;-55
2024/03/06 09:01:20;;;;;;;1.50;0.80;;;9.00;99.90;;;;;;5053730;28;20513;-56
2024/03/06 09:03:47;;;;;;;1.40;0.70;;;9.10;99.90;;;;;;5051984;28;20450;-58
2024/03/06 09:06:14;;;;;;;1.58;0.75;;;9.10;99.90;;;;;;5048252;28;20975;-58
2024/03/06 09:08:41;;;;;;;1.20;0.80;;;9.20;99.90;;;;;;5053607;28;20475;-58
2024/03/06 09:11:08;;;;;;;1.50;0.80;;;9.00;99.90;;;;;;5044674;28;20716;-58
2024/03/06 09:13:36;;;;;;;1.65;0.77;;;8.80;99.90;;;;;;5043294;28;20487;-59
2024/03/06 09:16:03;;;;;;;1.27;0.80;;;8.90;99.90;;;;;;5049729;28;20437;-57
2024/03/06 09:18:30;;;;;;;1.80;0.70;;;9.00;99.90;;;;;;5053083;28;20548;-57
2024/03/06 09:20:57;;;;;;;1.50;0.80;;;9.20;99.90;;;;;;5048080;28;20528;-56
2024/03/06 09:23:26;;;;;;;1.90;0.90;;;9.40;99.90;;;;;;5053455;28;20859;-58
2024/03/06 09:25:54;;;;;;;2.70;0.90;;;9.20;99.90;;;;;;5052368;28;20858;-56
2024/03/06 09:28:20;;;;;;;1.40;0.90;;;9.20;99.90;;;;;;5053735;28;20451;-59
2024/03/06 09:30:49;;;;;;;1.70;0.90;;;9.30;99.90;;;;;;5051935;28;20445;-58
2024/03/06 09:33:16;;;;;;;1.27;0.80;;;9.40;99.90;;;;;;5050436;28;20931;-59
2024/03/06 09:35:44;;;;;;;1.40;0.80;;;9.10;99.90;;;;;;5052493;28;20440;-58
2024/03/06 09:38:13;;;;;;;2.83;0.80;;;9.00;99.90;;;;;;5054462;28;20441;-59
2024/03/06 09:40:41;;;;;;;1.60;0.80;;;9.00;99.90;;;;;;5043921;28;20425;-58
2024/03/06 09:43:08;;;;;;;2.00;0.90;;;8.90;99.90;;;;;;5045973;28;20456;-58
2024/03/06 09:45:36;;;;;;;1.30;0.88;;;8.90;99.90;;;;;;5047559;28;20437;-58
2024/03/06 09:48:06;;;;;;;1.83;0.93;;;8.90;99.90;;;;;;5045846;28;20453;-59
2024/03/06 09:50:37;;;;;;;2.20;0.90;;;8.90;99.90;;;;;;5044239;28;20455;-58
2024/03/06 09:53:06;;;;;;;1.40;0.80;;;8.80;99.90;;;;;;5041072;28;20451;-59
2024/03/06 09:55:37;;;;;;;1.40;0.90;;;8.70;26.60;;;;;;5041249;28;20462;-58
2024/03/06 09:58:04;;;;;;;1.50;0.90;;;8.60;99.90;;;;;;5046262;28;20817;-58
2024/03/06 10:00:33;;;;;;;2.90;1.20;;;8.80;99.90;;;;;;5045161;28;20477;-59
2024/03/06 10:03:01;;;;;;;2.53;1.00;;;8.60;99.90;;;;;;5048165;28;20446;-59
2024/03/06 10:05:30;;;;;;;2.70;1.10;;;8.70;99.90;;;;;;5049245;28;20530;-59
2024/03/06 10:07:59;;;;;;;1.60;1.00;;;8.60;99.90;;;;;;5049744;28;20441;-59
2024/03/06 10:10:26;;;;;;;2.60;1.15;;;8.60;34.40;;;;;;5050996;28;20777;-59
2024/03/06 10:12:53;;;;;;;2.10;1.10;;;8.70;99.90;;;;;;5048400;28;20533;-59
2024/03/06 10:15:21;;;;;;;3.10;1.30;;;8.70;99.90;;;;;;5048681;28;20492;-58
2024/03/06 10:17:49;;;;;;;2.47;1.20;;;8.50;99.90;;;;;;5047355;28;20445;-60
2024/03/06 10:20:22;;;;;;;2.60;1.10;;;8.50;99.90;;;;;;5048925;28;20441;-59
2024/03/06 10:22:52;;;;;;;3.05;1.20;;;8.70;99.90;;;;;;5051427;28;20441;-59
2024/03/06 10:25:21;;;;;;;2.53;1.30;;;8.80;99.90;;;;;;5050528;28;20564;-58
2024/03/06 10:28:06;;;;;;;2.30;1.10;;;8.80;99.90;;;;;;5051882;28;20818;-58
2024/03/06 10:30:35;;;;;;;2.15;1.10;;;9.00;99.90;;;;;;5048519;28;20442;-59
2024/03/06 10:33:04;;;;;;;4.40;1.23;;;9.00;99.90;;;;;;5048947;28;20497;-59
2024/03/06 10:35:31;;;;;;;2.55;1.42;;;9.40;99.90;;;;;;5046367;28;20533;-59
2024/03/06 10:38:02;;;;;;;3.20;1.52;;;9.20;99.90;;;;;;5051061;28;20771;-59
2024/03/06 10:40:33;;;;;;;2.60;1.50;;;9.30;99.90;;;;;;5048118;28;20507;-59
2024/03/06 10:43:05;;;;;;;2.97;1.40;;;9.20;99.90;;;;;;5044222;28;20988;-59
2024/03/06 10:45:42;;;;;;;4.50;1.80;;;9.10;99.90;;;;;;5050402;28;20441;-58
2024/03/06 10:48:11;;;;;;;3.83;1.92;;;9.30;99.90;;;;;;5048840;28;20437;-58
2024/03/06 10:50:41;;;;;;;4.60;2.15;;;9.40;99.90;;;;;;5047687;28;20831;-59
2024/03/06 10:53:13;;;;;;;2.88;1.70;;;9.50;99.90;;;;;;5049532;28;20797;-59
2024/03/06 10:55:41;;;;;;;4.07;2.10;;;9.70;99.90;;;;;;5048197;28;20439;-58
2024/03/06 10:58:09;;;;;;;3.47;2.25;;;9.80;99.90;;;;;;5045863;28;20438;-59
2024/03/06 11:00:41;;;;;;;3.20;2.00;;;9.70;99.90;;;;;;5047828;28;20437;-59
2024/03/06 11:03:12;;;;;;;3.22;2.17;;;9.60;99.90;;;;;;5049229;28;20441;-58
2024/03/06 11:05:45;;;;;;;3.00;2.00;;;9.20;1.00;;;;;;5045476;28;20733;-57
2024/03/06 11:08:14;;;;;;;5.68;2.08;;;9.10;29.00;;;;;;5051209;28;20835;-56
2024/03/06 11:10:44;;;;;;;4.30;2.80;;;8.90;12.60;;;;;;5047823;28;20574;-56
2024/03/06 11:13:23;;;;;;;3.53;2.28;;;8.70;49.70;;;;;;5043477;28;20437;-56
2024/03/06 11:15:51;;;;;;;3.55;2.00;;;8.90;99.90;;;;;;5046257;28;20428;-57
2024/03/06 11:18:46;;;;;;;4.25;2.15;;;9.10;99.90;;;;;;5047603;28;20473;-57
2024/03/06 11:21:33;;;;;;;4.27;2.77;;;9.10;99.90;;;;;;5048884;28;20440;-58
2024/03/06 11:24:20;;;;;;;5.53;2.60;;;8.70;20.80;;;;;;5048008;28;20465;-57
2024/03/06 11:26:47;;;;;;;3.10;2.63;;;8.70;99.90;;;;;;5047915;28;20789;-54
2024/03/06 11:29:18;;;;;;;5.50;3.00;;;8.80;99.90;;;;;;5048363;28;20428;-54
2024/03/06 11:32:00;;;;;;;5.22;2.70;;;8.60;99.90;;;;;;5050709;28;20445;-55
2024/03/06 11:34:27;;;;;;;5.32;3.35;;;8.70;99.90;;;;;;5047784;28;20503;-54
2024/03/06 11:36:57;;;;;;;7.28;2.60;;;8.80;99.90;;;;;;5050067;28;20501;-53
2024/03/06 11:39:30;;;;;;;4.80;3.30;;;8.80;99.90;;;;;;5045776;28;20479;-56
2024/03/06 11:41:58;;;;;;;5.22;3.40;;;8.70;99.90;;;;;;5055034;28;20488;-52
2024/03/06 11:44:25;;;;;;;6.40;3.40;;;8.80;99.90;;;;;;5045462;28;20433;-53
2024/03/06 11:46:59;;;;;;;6.05;3.30;;;8.80;99.90;;;;;;5051686;28;20427;-51
2024/03/06 11:49:28;;;;;;;6.25;3.88;;;8.80;99.90;;;;;;5048826;28;20850;-51
2024/03/06 11:51:57;;;;;;;7.40;4.20;;;8.80;99.90;;;;;;5052365;28;20441;-53
2024/03/06 11:54:26;;;;;;;7.53;3.95;;;8.80;99.90;;;;;;5051485;28;20839;-51
2024/03/06 11:56:55;;;;;;;7.68;3.15;;;8.80;99.90;;;;;;5042016;28;20845;-50
2024/03/06 11:59:23;;;;;;;6.55;3.65;;;8.60;99.90;;;;;;5049402;28;20460;-51
2024/03/06 12:01:50;;;;;;;8.98;4.50;;;8.40;99.90;;;;;;5053533;28;20491;-52
2024/03/06 12:04:17;;;;;;;6.47;3.60;;;8.40;99.90;;;;;;5051281;28;20433;-53
2024/03/06 12:06:44;;;;;;;7.55;4.25;;;8.50;99.90;;;;;;5052308;28;21750;-56
2024/03/06 12:09:11;;;;;;;6.10;3.50;;;8.60;99.90;;;;;;5049076;28;20528;-51
2024/03/06 12:11:40;;;;;;;5.93;3.70;;;8.50;99.90;;;;;;5053516;28;20448;-55
2024/03/06 12:14:09;;;;;;;6.80;4.65;;;8.60;99.90;;;;;;5044978;28;20507;-52
2024/03/06 12:16:36;;;;;;;7.47;5.22;;;8.60;99.90;;;;;;5046257;28;20526;-52
2024/03/06 12:19:04;;;;;;;6.68;5.28;;;8.40;99.90;;;;;;5046390;28;20437;-55
2024/03/06 12:21:32;;;;;;;6.22;4.30;;;8.30;99.90;;;;;;5053020;28;20523;-55
2024/03/06 12:24:07;;;;;;;7.40;4.55;;;8.30;99.90;;;;;;5048615;28;20509;-54
2024/03/06 12:26:34;;;;;;;5.80;3.67;;;8.40;99.90;;;;;;5049641;28;20907;-51
2024/03/06 12:29:10;;;;;;;7.85;4.10;;;8.50;99.90;;;;;;5046068;28;20501;-54
2024/03/06 12:31:39;;;;;;;7.20;4.10;;;8.40;99.90;;;;;;5049477;28;20537;-55
2024/03/06 12:34:06;;;;;;;6.95;4.05;;;8.40;99.90;;;;;;5044973;28;20453;-55
2024/03/06 12:36:34;;;;;;;6.70;4.47;;;8.50;99.90;;;;;;5044766;28;20413;-56
2024/03/06 12:39:03;;;;;;;7.97;4.50;;;8.60;99.90;;;;;;5048275;28;20511;-53
2024/03/06 12:41:30;;;;;;;7.25;4.32;;;8.50;99.90;;;;;;5044071;28;20430;-56
2024/03/06 12:43:59;;;;;;;8.70;4.40;;;8.30;99.90;;;;;;5047289;28;20779;-52
2024/03/06 12:46:27;;;;;;;6.05;4.57;;;8.40;99.90;;;;;;5044716;28;20521;-55
2024/03/06 12:48:54;;;;;;;8.05;5.15;;;8.40;99.90;;;;;;5047270;28;20541;-52
2024/03/06 12:51:22;;;;;;;9.27;4.95;;;8.40;99.90;;;;;;5044386;28;20537;-54
2024/03/06 12:53:49;;;;;;;8.40;4.80;;;8.30;99.90;;;;;;5045854;28;20443;-54
2024/03/06 12:56:17;;;;;;;6.03;4.38;;;8.40;99.90;;;;;;5047714;28;20447;-55
2024/03/06 12:58:44;;;;;;;7.10;4.05;;;8.40;99.90;;;;;;5046199;28;20758;-56
2024/03/06 13:01:11;;;;;;;5.88;4.30;;;8.60;99.90;;;;;;5047738;28;20533;-50
2024/03/06 13:03:39;;;;;;;6.90;3.90;;;8.80;99.90;;;;;;5044146;28;20442;-56